sensor_id;sensor_type;location;lat;lon;timestamp;temperature;humidity
9658;DHT22;4867;48.112;11.622;2023-02-28T00:01:09;-2.10;99.90
9658;DHT22;4867;48.112;11.622;2023-02-28T00:03:36;-2.10;99.90
9658;DHT22;4867;48.112;11.622;2023-02-28T00:06:05;-2.10;99.90
9658;DHT22;4867;48.112;11.622;2023-02-28T00:08:33;-2.20;99.90
9658;DHT22;4867;48.112;11.622;2023-02-28T00:11:02;-2.20;99.90
9658;DHT22;4867;48.112;11.622;2023-02-28T00:13:30;-2.20;99.90
9658;DHT22;4867;48.112;11.622;2023-02-28T00:16:02;-2.20;99.90
9658;DHT22;4867;48.112;11.622;2023-02-28T00:18:29;-2.20;99.90
9658;DHT22;4867;48.112;11.622;2023-02-28T00:20:58;-2.20;99.90
9658;DHT22;4867;48.112;11.622;2023-02-28T00:23:26;-2.20;99.90
9658;DHT22;4867;48.112;11.622;2023-02-28T00:25:53;-2.20;99.90
9658;DHT22;4867;48.112;11.622;2023-02-28T00:28:21;-2.30;99.90
9658;DHT22;4867;48.112;11.622;2023-02-28T00:30:49;-2.30;99.90
9658;DHT22;4867;48.112;11.622;2023-02-28T00:33:16;-2.40;99.90
9658;DHT22;4867;48.112;11.622;2023-02-28T00:35:44;-2.40;99.90
9658;DHT22;4867;48.112;11.622;2023-02-28T00:38:14;-2.40;99.90
9658;DHT22;4867;48.112;11.622;2023-02-28T00:40:41;-2.40;99.90
9658;DHT22;4867;48.112;11.622;2023-02-28T00:43:10;-2.40;99.90
9658;DHT22;4867;48.112;11.622;2023-02-28T00:45:37;-2.50;99.90
9658;DHT22;4867;48.112;11.622;2023-02-28T00:48:05;-2.50;99.90
9658;DHT22;4867;48.112;11.622;2023-02-28T00:50:33;-2.50;99.90
9658;DHT22;4867;48.112;11.622;2023-02-28T00:53:00;-2.50;99.90
9658;DHT22;4867;48.112;11.622;2023-02-28T00:55:27;-2.50;99.90
9658;DHT22;4867;48.112;11.622;2023-02-28T00:57:54;-2.50;99.90
9658;DHT22;4867;48.112;11.622;2023-02-28T01:00:22;-2.50;99.90
9658;DHT22;4867;48.112;11.622;2023-02-28T01:02:50;-2.50;99.90
9658;DHT22;4867;48.112;11.622;2023-02-28T01:05:17;-2.50;99.90
9658;DHT22;4867;48.112;11.622;2023-02-28T01:07:44;-2.60;99.90
9658;DHT22;4867;48.112;11.622;2023-02-28T01:10:12;-2.60;99.90
9658;DHT22;4867;48.112;11.622;2023-02-28T01:12:40;-2.60;99.90
9658;DHT22;4867;48.112;11.622;2023-02-28T01:15:10;-2.60;99.90
9658;DHT22;4867;48.112;11.622;2023-02-28T01:17:38;-2.60;99.90
9658;DHT22;4867;48.112;11.622;2023-02-28T01:20:05;-2.60;99.90
9658;DHT22;4867;48.112;11.622;2023-02-28T01:22:34;-2.60;99.90
9658;DHT22;4867;48.112;11.622;2023-02-28T01:25:02;-2.60;99.90
9658;DHT22;4867;48.112;11.622;2023-02-28T01:27:31;-2.60;99.90
9658;DHT22;4867;48.112;11.622;2023-02-28T01:29:58;-2.60;99.90
9658;DHT22;4867;48.112;11.622;2023-02-28T01:32:26;-2.70;99.90
9658;DHT22;4867;48.112;11.622;2023-02-28T01:34:53;-2.70;99.90
9658;DHT22;4867;48.112;11.622;2023-02-28T01:37:23;-2.70;99.90
9658;DHT22;4867;48.112;11.622;2023-02-28T01:39:50;-2.70;99.90
9658;DHT22;4867;48.112;11.622;2023-02-28T01:42:20;-2.70;99.90
9658;DHT22;4867;48.112;11.622;2023-02-28T01:47:43;-2.70;99.90
9658;DHT22;4867;48.112;11.622;2023-02-28T01:50:18;-2.70;99.90
9658;DHT22;4867;48.112;11.622;2023-02-28T01:52:47;-2.70;99.90
9658;DHT22;4867;48.112;11.622;2023-02-28T01:55:16;-2.70;99.90
9658;DHT22;4867;48.112;11.622;2023-02-28T01:57:48;-2.70;99.90
9658;DHT22;4867;48.112;11.622;2023-02-28T02:00:20;-2.70;99.90
9658;DHT22;4867;48.112;11.622;2023-02-28T02:02:51;-2.70;99.90
9658;DHT22;4867;48.112;11.622;2023-02-28T02:05:23;-2.70;99.90
9658;DHT22;4867;48.112;11.622;2023-02-28T02:08:11;-2.70;99.90
9658;DHT22;4867;48.112;11.622;2023-02-28T02:18:53;-2.80;99.90
9658;DHT22;4867;48.112;11.622;2023-02-28T02:21:39;-2.80;99.90
9658;DHT22;4867;48.112;11.622;2023-02-28T02:36:23;-2.90;99.90
9658;DHT22;4867;48.112;11.622;2023-02-28T02:41:46;-2.90;99.90
9658;DHT22;4867;48.112;11.622;2023-02-28T02:44:56;-2.90;99.90
9658;DHT22;4867;48.112;11.622;2023-02-28T02:47:18;-2.90;99.90
9658;DHT22;4867;48.112;11.622;2023-02-28T02:49:51;-2.90;99.90
9658;DHT22;4867;48.112;11.622;2023-02-28T02:52:23;-2.90;99.90
9658;DHT22;4867;48.112;11.622;2023-02-28T02:54:54;-2.90;99.90
9658;DHT22;4867;48.112;11.622;2023-02-28T02:57:27;-2.90;99.90
9658;DHT22;4867;48.112;11.622;2023-02-28T02:59:57;-3.00;99.90
9658;DHT22;4867;48.112;11.622;2023-02-28T03:02:27;-3.00;99.90
9658;DHT22;4867;48.112;11.622;2023-02-28T03:05:23;-3.00;99.90
9658;DHT22;4867;48.112;11.622;2023-02-28T03:07:52;-3.00;99.90
9658;DHT22;4867;48.112;11.622;2023-02-28T03:10:46;-3.00;99.90
9658;DHT22;4867;48.112;11.622;2023-02-28T03:21:48;-3.10;99.90
9658;DHT22;4867;48.112;11.622;2023-02-28T03:26:58;-3.10;99.90
9658;DHT22;4867;48.112;11.622;2023-02-28T03:29:36;-3.10;99.90
9658;DHT22;4867;48.112;11.622;2023-02-28T03:32:08;-3.10;99.90
9658;DHT22;4867;48.112;11.622;2023-02-28T03:35:10;-3.10;99.90
9658;DHT22;4867;48.112;11.622;2023-02-28T03:37:35;-3.10;99.90
9658;DHT22;4867;48.112;11.622;2023-02-28T03:40:10;-3.10;99.90
9658;DHT22;4867;48.112;11.622;2023-02-28T03:42:41;-3.10;99.90
9658;DHT22;4867;48.112;11.622;2023-02-28T03:45:26;-3.20;99.90
9658;DHT22;4867;48.112;11.622;2023-02-28T03:50:40;-3.20;99.90
9658;DHT22;4867;48.112;11.622;2023-02-28T03:53:14;-3.20;99.90
9658;DHT22;4867;48.112;11.622;2023-02-28T03:55:45;-3.20;99.90
9658;DHT22;4867;48.112;11.622;2023-02-28T04:01:39;-3.20;99.90
9658;DHT22;4867;48.112;11.622;2023-02-28T04:04:10;-3.20;99.90
9658;DHT22;4867;48.112;11.622;2023-02-28T04:06:38;-3.30;99.90
9658;DHT22;4867;48.112;11.622;2023-02-28T04:09:09;-3.30;99.90
9658;DHT22;4867;48.112;11.622;2023-02-28T04:11:38;-3.30;99.90
9658;DHT22;4867;48.112;11.622;2023-02-28T04:14:07;-3.30;99.90
9658;DHT22;4867;48.112;11.622;2023-02-28T04:16:36;-3.30;99.90
9658;DHT22;4867;48.112;11.622;2023-02-28T04:19:04;-3.20;99.90
9658;DHT22;4867;48.112;11.622;2023-02-28T04:21:37;-3.20;99.90
9658;DHT22;4867;48.112;11.622;2023-02-28T04:24:10;-3.30;99.90
9658;DHT22;4867;48.112;11.622;2023-02-28T04:26:43;-3.30;99.90
9658;DHT22;4867;48.112;11.622;2023-02-28T04:29:13;-3.20;99.90
9658;DHT22;4867;48.112;11.622;2023-02-28T04:31:40;-3.20;99.90
9658;DHT22;4867;48.112;11.622;2023-02-28T04:34:07;-3.20;99.90
9658;DHT22;4867;48.112;11.622;2023-02-28T04:36:35;-3.20;99.90
9658;DHT22;4867;48.112;11.622;2023-02-28T04:39:02;-3.10;99.90
9658;DHT22;4867;48.112;11.622;2023-02-28T04:41:30;-3.00;99.90
9658;DHT22;4867;48.112;11.622;2023-02-28T04:43:59;-3.00;99.90
9658;DHT22;4867;48.112;11.622;2023-02-28T04:46:26;-3.00;99.90
9658;DHT22;4867;48.112;11.622;2023-02-28T04:48:53;-2.90;99.90
9658;DHT22;4867;48.112;11.622;2023-02-28T04:51:21;-2.90;99.90
9658;DHT22;4867;48.112;11.622;2023-02-28T04:53:49;-2.90;99.90
9658;DHT22;4867;48.112;11.622;2023-02-28T04:56:17;-2.90;99.90
9658;DHT22;4867;48.112;11.622;2023-02-28T04:58:45;-2.80;99.90
9658;DHT22;4867;48.112;11.622;2023-02-28T05:01:26;-2.80;99.90
9658;DHT22;4867;48.112;11.622;2023-02-28T05:03:56;-2.80;99.90
9658;DHT22;4867;48.112;11.622;2023-02-28T05:06:25;-2.80;99.90
9658;DHT22;4867;48.112;11.622;2023-02-28T05:08:53;-2.70;99.90
9658;DHT22;4867;48.112;11.622;2023-02-28T05:11:32;-2.70;99.90
9658;DHT22;4867;48.112;11.622;2023-02-28T05:14:04;-2.60;99.90
9658;DHT22;4867;48.112;11.622;2023-02-28T05:16:32;-2.60;99.90
9658;DHT22;4867;48.112;11.622;2023-02-28T05:18:59;-2.60;99.90
9658;DHT22;4867;48.112;11.622;2023-02-28T05:21:31;-2.60;99.90
9658;DHT22;4867;48.112;11.622;2023-02-28T05:24:04;-2.50;99.90
9658;DHT22;4867;48.112;11.622;2023-02-28T05:26:37;-2.50;99.90
9658;DHT22;4867;48.112;11.622;2023-02-28T05:29:05;-2.50;99.90
9658;DHT22;4867;48.112;11.622;2023-02-28T05:31:32;-2.40;99.90
9658;DHT22;4867;48.112;11.622;2023-02-28T05:34:00;-2.40;99.90
9658;DHT22;4867;48.112;11.622;2023-02-28T05:36:27;-2.40;99.90
9658;DHT22;4867;48.112;11.622;2023-02-28T05:38:54;-2.30;99.90
9658;DHT22;4867;48.112;11.622;2023-02-28T05:41:22;-2.40;99.90
9658;DHT22;4867;48.112;11.622;2023-02-28T05:43:49;-2.30;99.90
9658;DHT22;4867;48.112;11.622;2023-02-28T05:46:17;-2.30;99.90
9658;DHT22;4867;48.112;11.622;2023-02-28T05:48:46;-2.30;99.90
9658;DHT22;4867;48.112;11.622;2023-02-28T05:51:15;-2.30;99.90
9658;DHT22;4867;48.112;11.622;2023-02-28T05:53:42;-2.30;99.90
9658;DHT22;4867;48.112;11.622;2023-02-28T05:56:09;-2.30;99.90
9658;DHT22;4867;48.112;11.622;2023-02-28T05:58:37;-2.30;99.90
9658;DHT22;4867;48.112;11.622;2023-02-28T06:01:39;-2.20;99.90
9658;DHT22;4867;48.112;11.622;2023-02-28T06:04:09;-2.10;99.90
9658;DHT22;4867;48.112;11.622;2023-02-28T06:06:51;-2.10;99.90
9658;DHT22;4867;48.112;11.622;2023-02-28T06:09:19;-2.10;99.90
9658;DHT22;4867;48.112;11.622;2023-02-28T06:11:47;-2.10;99.90
9658;DHT22;4867;48.112;11.622;2023-02-28T06:14:16;-2.10;99.90
9658;DHT22;4867;48.112;11.622;2023-02-28T06:16:44;-2.10;99.90
9658;DHT22;4867;48.112;11.622;2023-02-28T06:19:11;-2.10;99.90
9658;DHT22;4867;48.112;11.622;2023-02-28T06:21:39;-2.00;99.90
9658;DHT22;4867;48.112;11.622;2023-02-28T06:24:07;-2.00;99.90
9658;DHT22;4867;48.112;11.622;2023-02-28T06:26:34;-2.00;99.90
9658;DHT22;4867;48.112;11.622;2023-02-28T06:29:01;-2.00;99.90
9658;DHT22;4867;48.112;11.622;2023-02-28T06:31:29;-2.00;99.90
9658;DHT22;4867;48.112;11.622;2023-02-28T06:33:57;-2.10;99.90
9658;DHT22;4867;48.112;11.622;2023-02-28T06:36:24;-2.00;99.90
9658;DHT22;4867;48.112;11.622;2023-02-28T06:38:52;-1.90;99.90
9658;DHT22;4867;48.112;11.622;2023-02-28T06:41:23;-1.90;99.90
9658;DHT22;4867;48.112;11.622;2023-02-28T06:43:51;-1.90;99.90
9658;DHT22;4867;48.112;11.622;2023-02-28T06:46:19;-1.80;99.90
9658;DHT22;4867;48.112;11.622;2023-02-28T06:48:46;-1.80;99.90
9658;DHT22;4867;48.112;11.622;2023-02-28T06:51:17;-1.80;99.90
9658;DHT22;4867;48.112;11.622;2023-02-28T06:53:44;-1.70;99.90
9658;DHT22;4867;48.112;11.622;2023-02-28T06:56:13;-1.70;99.90
9658;DHT22;4867;48.112;11.622;2023-02-28T06:58:41;-1.70;99.90
9658;DHT22;4867;48.112;11.622;2023-02-28T07:01:08;-1.70;99.90
9658;DHT22;4867;48.112;11.622;2023-02-28T07:03:36;-1.70;99.90
9658;DHT22;4867;48.112;11.622;2023-02-28T07:06:04;-1.70;99.90
9658;DHT22;4867;48.112;11.622;2023-02-28T07:08:33;-1.70;99.90
9658;DHT22;4867;48.112;11.622;2023-02-28T07:11:00;-1.60;99.90
9658;DHT22;4867;48.112;11.622;2023-02-28T07:13:28;-1.60;99.90
9658;DHT22;4867;48.112;11.622;2023-02-28T07:16:05;-1.60;99.90
9658;DHT22;4867;48.112;11.622;2023-02-28T07:18:33;-1.60;99.90
9658;DHT22;4867;48.112;11.622;2023-02-28T07:21:05;-1.60;99.90
9658;DHT22;4867;48.112;11.622;2023-02-28T07:23:33;-1.60;99.90
9658;DHT22;4867;48.112;11.622;2023-02-28T07:26:01;-1.60;99.90
9658;DHT22;4867;48.112;11.622;2023-02-28T07:28:28;-1.60;99.90
9658;DHT22;4867;48.112;11.622;2023-02-28T07:30:56;-1.50;99.90
9658;DHT22;4867;48.112;11.622;2023-02-28T07:33:23;-1.40;99.90
9658;DHT22;4867;48.112;11.622;2023-02-28T07:35:50;-1.30;99.90
9658;DHT22;4867;48.112;11.622;2023-02-28T07:38:18;-1.30;99.90
9658;DHT22;4867;48.112;11.622;2023-02-28T07:40:45;-1.30;99.90
9658;DHT22;4867;48.112;11.622;2023-02-28T07:43:12;-1.30;99.90
9658;DHT22;4867;48.112;11.622;2023-02-28T07:45:39;-1.20;99.90
9658;DHT22;4867;48.112;11.622;2023-02-28T07:48:07;-1.20;99.90
9658;DHT22;4867;48.112;11.622;2023-02-28T07:50:37;-1.20;99.90
9658;DHT22;4867;48.112;11.622;2023-02-28T07:53:04;-1.20;99.90
9658;DHT22;4867;48.112;11.622;2023-02-28T07:55:31;-1.10;99.90
9658;DHT22;4867;48.112;11.622;2023-02-28T07:57:59;-1.10;99.90
9658;DHT22;4867;48.112;11.622;2023-02-28T08:00:26;-1.00;99.90
9658;DHT22;4867;48.112;11.622;2023-02-28T08:02:53;-1.10;99.90
9658;DHT22;4867;48.112;11.622;2023-02-28T08:05:21;-1.10;99.90
9658;DHT22;4867;48.112;11.622;2023-02-28T08:07:51;-1.20;99.90
9658;DHT22;4867;48.112;11.622;2023-02-28T08:10:20;-1.10;99.90
9658;DHT22;4867;48.112;11.622;2023-02-28T08:12:47;-1.20;99.90
9658;DHT22;4867;48.112;11.622;2023-02-28T08:15:14;-1.10;99.90
9658;DHT22;4867;48.112;11.622;2023-02-28T08:17:41;-1.10;99.90
9658;DHT22;4867;48.112;11.622;2023-02-28T08:20:09;-1.10;99.90
9658;DHT22;4867;48.112;11.622;2023-02-28T08:22:37;-1.10;99.90
9658;DHT22;4867;48.112;11.622;2023-02-28T08:25:04;-1.10;99.90
9658;DHT22;4867;48.112;11.622;2023-02-28T08:27:34;-1.00;99.90
9658;DHT22;4867;48.112;11.622;2023-02-28T08:30:03;-0.90;99.90
9658;DHT22;4867;48.112;11.622;2023-02-28T08:32:32;-0.90;99.90
9658;DHT22;4867;48.112;11.622;2023-02-28T08:34:59;-0.90;99.90
9658;DHT22;4867;48.112;11.622;2023-02-28T08:37:27;-0.90;99.90
9658;DHT22;4867;48.112;11.622;2023-02-28T08:39:54;-0.80;99.90
9658;DHT22;4867;48.112;11.622;2023-02-28T08:42:23;-0.70;99.90
9658;DHT22;4867;48.112;11.622;2023-02-28T08:44:51;-0.70;99.90
9658;DHT22;4867;48.112;11.622;2023-02-28T08:47:18;-0.70;99.90
9658;DHT22;4867;48.112;11.622;2023-02-28T08:49:46;-0.60;99.90
9658;DHT22;4867;48.112;11.622;2023-02-28T08:52:13;-0.60;99.90
9658;DHT22;4867;48.112;11.622;2023-02-28T08:54:40;-0.50;99.90
9658;DHT22;4867;48.112;11.622;2023-02-28T08:57:07;-0.50;99.90
9658;DHT22;4867;48.112;11.622;2023-02-28T08:59:35;-0.50;99.90
9658;DHT22;4867;48.112;11.622;2023-02-28T09:02:02;-0.50;99.90
9658;DHT22;4867;48.112;11.622;2023-02-28T09:04:29;-0.40;99.90
9658;DHT22;4867;48.112;11.622;2023-02-28T09:06:58;-0.30;99.90
9658;DHT22;4867;48.112;11.622;2023-02-28T09:09:25;-0.30;99.90
9658;DHT22;4867;48.112;11.622;2023-02-28T09:11:54;-0.20;99.90
9658;DHT22;4867;48.112;11.622;2023-02-28T09:14:22;-0.20;99.90
9658;DHT22;4867;48.112;11.622;2023-02-28T09:16:49;-0.10;99.90
9658;DHT22;4867;48.112;11.622;2023-02-28T09:19:17;0.00;99.90
9658;DHT22;4867;48.112;11.622;2023-02-28T09:21:44;0.00;99.90
9658;DHT22;4867;48.112;11.622;2023-02-28T09:24:11;0.10;99.90
9658;DHT22;4867;48.112;11.622;2023-02-28T09:26:41;0.00;99.90
9658;DHT22;4867;48.112;11.622;2023-02-28T09:29:21;0.00;99.90
9658;DHT22;4867;48.112;11.622;2023-02-28T09:31:49;-0.10;99.90
9658;DHT22;4867;48.112;11.622;2023-02-28T09:34:17;-0.10;99.90
9658;DHT22;4867;48.112;11.622;2023-02-28T09:36:44;0.00;99.90
9658;DHT22;4867;48.112;11.622;2023-02-28T09:39:13;0.10;99.90
9658;DHT22;4867;48.112;11.622;2023-02-28T09:41:48;0.20;99.90
9658;DHT22;4867;48.112;11.622;2023-02-28T09:44:40;0.20;99.90
9658;DHT22;4867;48.112;11.622;2023-02-28T09:47:29;0.20;99.90
9658;DHT22;4867;48.112;11.622;2023-02-28T09:50:03;0.20;99.90
9658;DHT22;4867;48.112;11.622;2023-02-28T09:52:34;0.20;99.90
9658;DHT22;4867;48.112;11.622;2023-02-28T09:55:22;0.30;99.90
9658;DHT22;4867;48.112;11.622;2023-02-28T09:57:55;0.40;99.90
9658;DHT22;4867;48.112;11.622;2023-02-28T10:00:34;0.50;99.90
9658;DHT22;4867;48.112;11.622;2023-02-28T10:03:26;0.50;99.90
9658;DHT22;4867;48.112;11.622;2023-02-28T10:06:14;0.50;99.90
9658;DHT22;4867;48.112;11.622;2023-02-28T10:09:03;0.50;99.90
9658;DHT22;4867;48.112;11.622;2023-02-28T10:11:33;0.50;99.90
9658;DHT22;4867;48.112;11.622;2023-02-28T10:14:02;0.60;99.90
9658;DHT22;4867;48.112;11.622;2023-02-28T10:16:40;0.70;99.90
9658;DHT22;4867;48.112;11.622;2023-02-28T10:19:23;0.80;99.90
9658;DHT22;4867;48.112;11.622;2023-02-28T10:22:14;0.90;99.90
9658;DHT22;4867;48.112;11.622;2023-02-28T10:24:55;1.00;99.90
9658;DHT22;4867;48.112;11.622;2023-02-28T10:27:30;1.10;99.90
9658;DHT22;4867;48.112;11.622;2023-02-28T10:30:00;1.20;99.90
9658;DHT22;4867;48.112;11.622;2023-02-28T10:32:34;1.30;99.90
9658;DHT22;4867;48.112;11.622;2023-02-28T10:35:26;1.50;99.90
9658;DHT22;4867;48.112;11.622;2023-02-28T10:37:59;1.50;99.90
9658;DHT22;4867;48.112;11.622;2023-02-28T10:40:32;1.60;99.90
9658;DHT22;4867;48.112;11.622;2023-02-28T10:51:10;2.00;99.90
9658;DHT22;4867;48.112;11.622;2023-02-28T10:53:50;2.00;99.90
9658;DHT22;4867;48.112;11.622;2023-02-28T10:56:28;2.00;99.90
9658;DHT22;4867;48.112;11.622;2023-02-28T10:59:22;2.10;99.90
9658;DHT22;4867;48.112;11.622;2023-02-28T11:01:50;2.10;99.90
9658;DHT22;4867;48.112;11.622;2023-02-28T11:04:32;2.10;99.90
9658;DHT22;4867;48.112;11.622;2023-02-28T11:07:02;2.10;99.90
9658;DHT22;4867;48.112;11.622;2023-02-28T11:09:38;2.10;99.90
9658;DHT22;4867;48.112;11.622;2023-02-28T11:12:24;2.10;99.90
9658;DHT22;4867;48.112;11.622;2023-02-28T11:14:55;2.10;99.90
9658;DHT22;4867;48.112;11.622;2023-02-28T11:17:31;2.20;99.90
9658;DHT22;4867;48.112;11.622;2023-02-28T11:20:04;2.20;99.90
9658;DHT22;4867;48.112;11.622;2023-02-28T11:22:39;2.20;99.90
9658;DHT22;4867;48.112;11.622;2023-02-28T11:25:21;2.20;99.90
9658;DHT22;4867;48.112;11.622;2023-02-28T11:27:52;2.20;99.90
9658;DHT22;4867;48.112;11.622;2023-02-28T11:30:39;2.20;99.90
9658;DHT22;4867;48.112;11.622;2023-02-28T11:33:29;2.20;99.90
9658;DHT22;4867;48.112;11.622;2023-02-28T11:36:02;2.30;99.90
9658;DHT22;4867;48.112;11.622;2023-02-28T11:38:38;2.50;99.90
9658;DHT22;4867;48.112;11.622;2023-02-28T11:46:52;2.80;99.90
9658;DHT22;4867;48.112;11.622;2023-02-28T11:52:36;3.00;99.90
9658;DHT22;4867;48.112;11.622;2023-02-28T11:58:14;3.10;99.90
9658;DHT22;4867;48.112;11.622;2023-02-28T12:03:55;3.30;99.90
9658;DHT22;4867;48.112;11.622;2023-02-28T12:09:48;3.50;99.90
9658;DHT22;4867;48.112;11.622;2023-02-28T12:13:18;3.80;99.90
9658;DHT22;4867;48.112;11.622;2023-02-28T12:21:13;4.20;99.90
9658;DHT22;4867;48.112;11.622;2023-02-28T12:24:07;4.10;99.90
9658;DHT22;4867;48.112;11.622;2023-02-28T12:26:34;4.00;99.90
9658;DHT22;4867;48.112;11.622;2023-02-28T12:29:26;3.90;99.90
9658;DHT22;4867;48.112;11.622;2023-02-28T12:32:06;3.90;99.90
9658;DHT22;4867;48.112;11.622;2023-02-28T12:34:43;3.90;99.90
9658;DHT22;4867;48.112;11.622;2023-02-28T12:37:16;3.90;99.90
9658;DHT22;4867;48.112;11.622;2023-02-28T12:39:48;3.90;99.90
9658;DHT22;4867;48.112;11.622;2023-02-28T12:42:29;3.90;99.90
9658;DHT22;4867;48.112;11.622;2023-02-28T12:45:03;3.90;99.90
9658;DHT22;4867;48.112;11.622;2023-02-28T12:47:31;4.00;99.90
9658;DHT22;4867;48.112;11.622;2023-02-28T12:50:08;4.10;99.90
9658;DHT22;4867;48.112;11.622;2023-02-28T12:52:46;4.20;99.90
9658;DHT22;4867;48.112;11.622;2023-02-28T12:55:20;4.20;99.90
9658;DHT22;4867;48.112;11.622;2023-02-28T12:58:12;4.20;99.90
9658;DHT22;4867;48.112;11.622;2023-02-28T13:09:29;4.40;99.90
9658;DHT22;4867;48.112;11.622;2023-02-28T13:11:58;4.50;99.90
9658;DHT22;4867;48.112;11.622;2023-02-28T13:14:37;4.50;99.90
9658;DHT22;4867;48.112;11.622;2023-02-28T13:20:01;4.50;99.90
9658;DHT22;4867;48.112;11.622;2023-02-28T13:25:02;4.60;99.90
9658;DHT22;4867;48.112;11.622;2023-02-28T13:27:40;4.50;99.90
9658;DHT22;4867;48.112;11.622;2023-02-28T13:38:43;4.20;99.90
9658;DHT22;4867;48.112;11.622;2023-02-28T13:44:13;4.20;99.90
9658;DHT22;4867;48.112;11.622;2023-02-28T13:49:25;4.20;99.90
9658;DHT22;4867;48.112;11.622;2023-02-28T13:52:10;4.20;99.90
9658;DHT22;4867;48.112;11.622;2023-02-28T13:58:20;4.30;99.90
9658;DHT22;4867;48.112;11.622;2023-02-28T14:01:05;4.20;99.90
9658;DHT22;4867;48.112;11.622;2023-02-28T14:06:35;4.10;99.90
9658;DHT22;4867;48.112;11.622;2023-02-28T14:11:51;4.10;99.90
9658;DHT22;4867;48.112;11.622;2023-02-28T14:17:08;3.90;99.90
9658;DHT22;4867;48.112;11.622;2023-02-28T14:19:39;3.90;99.90
9658;DHT22;4867;48.112;11.622;2023-02-28T14:36:18;3.80;99.90
9658;DHT22;4867;48.112;11.622;2023-02-28T14:39:06;3.80;99.90
9658;DHT22;4867;48.112;11.622;2023-02-28T14:41:37;3.70;99.90
9658;DHT22;4867;48.112;11.622;2023-02-28T14:44:25;3.60;99.90
9658;DHT22;4867;48.112;11.622;2023-02-28T14:47:02;3.60;99.90
9658;DHT22;4867;48.112;11.622;2023-02-28T14:49:36;3.50;99.90
9658;DHT22;4867;48.112;11.622;2023-02-28T14:52:25;3.50;99.90
9658;DHT22;4867;48.112;11.622;2023-02-28T14:54:57;3.50;99.90
9658;DHT22;4867;48.112;11.622;2023-02-28T14:57:30;3.60;99.90
9658;DHT22;4867;48.112;11.622;2023-02-28T15:00:14;3.60;99.90
9658;DHT22;4867;48.112;11.622;2023-02-28T15:02:43;3.60;99.90
9658;DHT22;4867;48.112;11.622;2023-02-28T15:07:47;3.60;99.90
9658;DHT22;4867;48.112;11.622;2023-02-28T15:10:25;3.60;99.90
9658;DHT22;4867;48.112;11.622;2023-02-28T15:18:54;3.70;99.90
9658;DHT22;4867;48.112;11.622;2023-02-28T15:21:35;3.70;99.90
9658;DHT22;4867;48.112;11.622;2023-02-28T15:24:07;3.80;99.90
9658;DHT22;4867;48.112;11.622;2023-02-28T15:26:39;3.80;99.90
9658;DHT22;4867;48.112;11.622;2023-02-28T15:29:14;3.70;99.90
9658;DHT22;4867;48.112;11.622;2023-02-28T15:32:00;3.70;99.90
9658;DHT22;4867;48.112;11.622;2023-02-28T15:34:36;3.70;99.90
9658;DHT22;4867;48.112;11.622;2023-02-28T15:37:40;3.60;99.90
9658;DHT22;4867;48.112;11.622;2023-02-28T15:40:16;3.60;99.90
9658;DHT22;4867;48.112;11.622;2023-02-28T15:48:23;3.50;99.90
9658;DHT22;4867;48.112;11.622;2023-02-28T15:50:56;3.50;99.90
9658;DHT22;4867;48.112;11.622;2023-02-28T15:53:33;3.50;99.90
9658;DHT22;4867;48.112;11.622;2023-02-28T15:56:06;3.50;99.90
9658;DHT22;4867;48.112;11.622;2023-02-28T15:58:41;3.50;99.90
9658;DHT22;4867;48.112;11.622;2023-02-28T16:01:29;3.50;99.90
9658;DHT22;4867;48.112;11.622;2023-02-28T16:04:05;3.50;99.90
9658;DHT22;4867;48.112;11.622;2023-02-28T16:06:37;3.40;99.90
9658;DHT22;4867;48.112;11.622;2023-02-28T16:09:06;3.40;99.90
9658;DHT22;4867;48.112;11.622;2023-02-28T16:11:46;3.40;99.90
9658;DHT22;4867;48.112;11.622;2023-02-28T16:14:19;3.40;99.90
9658;DHT22;4867;48.112;11.622;2023-02-28T16:16:50;3.40;99.90
9658;DHT22;4867;48.112;11.622;2023-02-28T16:19:19;3.30;99.90
9658;DHT22;4867;48.112;11.622;2023-02-28T16:21:47;3.30;99.90
9658;DHT22;4867;48.112;11.622;2023-02-28T16:24:14;3.30;99.90
9658;DHT22;4867;48.112;11.622;2023-02-28T16:26:45;3.20;99.90
9658;DHT22;4867;48.112;11.622;2023-02-28T16:29:25;3.20;99.90
9658;DHT22;4867;48.112;11.622;2023-02-28T16:31:53;3.20;99.90
9658;DHT22;4867;48.112;11.622;2023-02-28T16:34:21;3.10;99.90
9658;DHT22;4867;48.112;11.622;2023-02-28T16:36:49;3.10;99.90
9658;DHT22;4867;48.112;11.622;2023-02-28T16:39:17;3.10;99.90
9658;DHT22;4867;48.112;11.622;2023-02-28T16:41:48;3.10;99.90
9658;DHT22;4867;48.112;11.622;2023-02-28T16:44:28;3.00;99.90
9658;DHT22;4867;48.112;11.622;2023-02-28T16:46:56;3.00;99.90
9658;DHT22;4867;48.112;11.622;2023-02-28T16:49:23;2.90;99.90
9658;DHT22;4867;48.112;11.622;2023-02-28T16:51:51;2.90;99.90
9658;DHT22;4867;48.112;11.622;2023-02-28T16:54:18;2.80;99.90
9658;DHT22;4867;48.112;11.622;2023-02-28T16:56:47;2.80;99.90
9658;DHT22;4867;48.112;11.622;2023-02-28T16:59:24;2.80;99.90
9658;DHT22;4867;48.112;11.622;2023-02-28T17:01:51;2.80;99.90
9658;DHT22;4867;48.112;11.622;2023-02-28T17:04:19;2.70;99.90
9658;DHT22;4867;48.112;11.622;2023-02-28T17:06:46;2.70;99.90
9658;DHT22;4867;48.112;11.622;2023-02-28T17:09:17;2.60;99.90
9658;DHT22;4867;48.112;11.622;2023-02-28T17:11:45;2.60;99.90
9658;DHT22;4867;48.112;11.622;2023-02-28T17:14:12;2.60;99.90
9658;DHT22;4867;48.112;11.622;2023-02-28T17:16:40;2.50;99.90
9658;DHT22;4867;48.112;11.622;2023-02-28T17:19:13;2.50;99.90
9658;DHT22;4867;48.112;11.622;2023-02-28T17:21:42;2.40;99.90
9658;DHT22;4867;48.112;11.622;2023-02-28T17:24:10;2.40;99.90
9658;DHT22;4867;48.112;11.622;2023-02-28T17:26:51;2.40;99.90
9658;DHT22;4867;48.112;11.622;2023-02-28T17:29:20;2.40;99.90
9658;DHT22;4867;48.112;11.622;2023-02-28T17:31:48;2.40;99.90
9658;DHT22;4867;48.112;11.622;2023-02-28T17:34:15;2.30;99.90
9658;DHT22;4867;48.112;11.622;2023-02-28T17:36:46;2.30;99.90
9658;DHT22;4867;48.112;11.622;2023-02-28T17:39:16;2.30;99.90
9658;DHT22;4867;48.112;11.622;2023-02-28T17:41:54;2.20;99.90
9658;DHT22;4867;48.112;11.622;2023-02-28T17:44:23;2.10;99.90
9658;DHT22;4867;48.112;11.622;2023-02-28T17:46:52;2.10;99.90
9658;DHT22;4867;48.112;11.622;2023-02-28T17:49:21;2.00;99.90
9658;DHT22;4867;48.112;11.622;2023-02-28T17:51:48;2.00;99.90
9658;DHT22;4867;48.112;11.622;2023-02-28T17:54:16;2.00;99.90
9658;DHT22;4867;48.112;11.622;2023-02-28T17:56:45;2.00;99.90
9658;DHT22;4867;48.112;11.622;2023-02-28T17:59:13;2.00;99.90
9658;DHT22;4867;48.112;11.622;2023-02-28T18:01:40;2.00;99.90
9658;DHT22;4867;48.112;11.622;2023-02-28T18:04:07;2.00;99.90
9658;DHT22;4867;48.112;11.622;2023-02-28T18:06:40;2.00;99.90
9658;DHT22;4867;48.112;11.622;2023-02-28T18:09:15;2.00;99.90
9658;DHT22;4867;48.112;11.622;2023-02-28T18:11:43;2.00;99.90
9658;DHT22;4867;48.112;11.622;2023-02-28T18:14:15;2.00;99.90
9658;DHT22;4867;48.112;11.622;2023-02-28T18:16:44;2.00;99.90
9658;DHT22;4867;48.112;11.622;2023-02-28T18:19:11;2.00;99.90
9658;DHT22;4867;48.112;11.622;2023-02-28T18:21:44;2.00;99.90
9658;DHT22;4867;48.112;11.622;2023-02-28T18:24:13;2.00;99.90
9658;DHT22;4867;48.112;11.622;2023-02-28T18:26:41;2.10;99.90
9658;DHT22;4867;48.112;11.622;2023-02-28T18:29:16;2.00;99.90
9658;DHT22;4867;48.112;11.622;2023-02-28T18:31:43;2.10;99.90
9658;DHT22;4867;48.112;11.622;2023-02-28T18:34:10;2.10;99.90
9658;DHT22;4867;48.112;11.622;2023-02-28T18:36:38;2.10;99.90
9658;DHT22;4867;48.112;11.622;2023-02-28T18:39:06;2.10;99.90
9658;DHT22;4867;48.112;11.622;2023-02-28T18:41:33;2.20;99.90
9658;DHT22;4867;48.112;11.622;2023-02-28T18:44:00;2.20;99.90
9658;DHT22;4867;48.112;11.622;2023-02-28T18:46:39;2.20;99.90